sensor_id;sensor_type;location;lat;lon;timestamp;temperature;humidity
18287;DHT22;9269;50.838;12.094;2023-05-16T00:01:10;17.30;37.00
18287;DHT22;9269;50.838;12.094;2023-05-16T00:03:39;17.30;36.80
18287;DHT22;9269;50.838;12.094;2023-05-16T00:06:09;17.30;36.80
18287;DHT22;9269;50.838;12.094;2023-05-16T00:08:37;17.30;37.30
18287;DHT22;9269;50.838;12.094;2023-05-16T00:11:07;17.20;37.40
18287;DHT22;9269;50.838;12.094;2023-05-16T00:13:36;17.30;37.30
18287;DHT22;9269;50.838;12.094;2023-05-16T00:16:06;17.20;37.50
18287;DHT22;9269;50.838;12.094;2023-05-16T00:18:35;17.30;37.00
18287;DHT22;9269;50.838;12.094;2023-05-16T00:21:05;17.10;37.00
18287;DHT22;9269;50.838;12.094;2023-05-16T00:23:34;17.10;37.40
18287;DHT22;9269;50.838;12.094;2023-05-16T00:26:03;17.10;37.20
18287;DHT22;9269;50.838;12.094;2023-05-16T00:28:32;17.10;36.90
18287;DHT22;9269;50.838;12.094;2023-05-16T00:31:01;17.10;37.30
18287;DHT22;9269;50.838;12.094;2023-05-16T00:33:32;17.10;37.40
18287;DHT22;9269;50.838;12.094;2023-05-16T00:36:01;17.00;37.20
18287;DHT22;9269;50.838;12.094;2023-05-16T00:38:29;17.00;37.00
18287;DHT22;9269;50.838;12.094;2023-05-16T00:41:01;17.00;37.00
18287;DHT22;9269;50.838;12.094;2023-05-16T00:43:32;16.90;37.20
18287;DHT22;9269;50.838;12.094;2023-05-16T00:46:00;17.00;37.20
18287;DHT22;9269;50.838;12.094;2023-05-16T00:48:31;17.00;37.60
18287;DHT22;9269;50.838;12.094;2023-05-16T00:51:00;17.00;37.20
18287;DHT22;9269;50.838;12.094;2023-05-16T00:53:29;16.90;37.80
18287;DHT22;9269;50.838;12.094;2023-05-16T00:55:58;16.80;37.40
18287;DHT22;9269;50.838;12.094;2023-05-16T00:58:29;16.80;37.80
18287;DHT22;9269;50.838;12.094;2023-05-16T01:00:58;16.80;37.90
18287;DHT22;9269;50.838;12.094;2023-05-16T01:03:31;16.80;38.10
18287;DHT22;9269;50.838;12.094;2023-05-16T01:06:05;16.80;38.00
18287;DHT22;9269;50.838;12.094;2023-05-16T01:08:34;16.80;38.00
18287;DHT22;9269;50.838;12.094;2023-05-16T01:11:08;16.80;37.90
18287;DHT22;9269;50.838;12.094;2023-05-16T01:13:44;16.70;38.30
18287;DHT22;9269;50.838;12.094;2023-05-16T01:16:19;16.60;38.30
18287;DHT22;9269;50.838;12.094;2023-05-16T01:19:04;16.70;38.40
18287;DHT22;9269;50.838;12.094;2023-05-16T01:21:41;16.60;38.30
18287;DHT22;9269;50.838;12.094;2023-05-16T01:24:13;16.60;38.60
18287;DHT22;9269;50.838;12.094;2023-05-16T01:26:50;16.50;38.80
18287;DHT22;9269;50.838;12.094;2023-05-16T01:29:20;16.60;38.60
18287;DHT22;9269;50.838;12.094;2023-05-16T01:31:48;16.50;39.00
18287;DHT22;9269;50.838;12.094;2023-05-16T01:34:17;16.50;38.70
18287;DHT22;9269;50.838;12.094;2023-05-16T01:36:54;16.50;39.20
18287;DHT22;9269;50.838;12.094;2023-05-16T01:39:32;16.60;38.80
18287;DHT22;9269;50.838;12.094;2023-05-16T01:42:04;16.50;39.00
18287;DHT22;9269;50.838;12.094;2023-05-16T01:44:39;16.40;38.80
18287;DHT22;9269;50.838;12.094;2023-05-16T01:47:11;16.50;39.00
18287;DHT22;9269;50.838;12.094;2023-05-16T01:49:44;16.50;38.80
18287;DHT22;9269;50.838;12.094;2023-05-16T01:52:16;16.50;38.80
18287;DHT22;9269;50.838;12.094;2023-05-16T01:54:47;16.50;38.90
18287;DHT22;9269;50.838;12.094;2023-05-16T01:57:19;16.50;38.80
18287;DHT22;9269;50.838;12.094;2023-05-16T01:59:52;16.50;38.90
18287;DHT22;9269;50.838;12.094;2023-05-16T02:02:21;16.60;38.70
18287;DHT22;9269;50.838;12.094;2023-05-16T02:04:50;16.50;38.70
18287;DHT22;9269;50.838;12.094;2023-05-16T02:07:19;16.50;39.40
18287;DHT22;9269;50.838;12.094;2023-05-16T02:09:48;16.50;39.50
18287;DHT22;9269;50.838;12.094;2023-05-16T02:12:19;16.50;39.00
18287;DHT22;9269;50.838;12.094;2023-05-16T02:14:48;16.50;38.90
18287;DHT22;9269;50.838;12.094;2023-05-16T02:17:16;16.50;38.80
18287;DHT22;9269;50.838;12.094;2023-05-16T02:19:45;16.50;38.90
18287;DHT22;9269;50.838;12.094;2023-05-16T02:22:14;16.40;39.30
18287;DHT22;9269;50.838;12.094;2023-05-16T02:24:43;16.50;38.90
18287;DHT22;9269;50.838;12.094;2023-05-16T02:27:11;16.40;39.10
18287;DHT22;9269;50.838;12.094;2023-05-16T02:29:41;16.40;38.90
18287;DHT22;9269;50.838;12.094;2023-05-16T02:32:10;16.40;39.00
18287;DHT22;9269;50.838;12.094;2023-05-16T02:34:39;16.30;38.60
18287;DHT22;9269;50.838;12.094;2023-05-16T02:37:07;16.30;39.20
18287;DHT22;9269;50.838;12.094;2023-05-16T02:39:39;16.30;39.30
18287;DHT22;9269;50.838;12.094;2023-05-16T02:42:07;16.30;39.10
18287;DHT22;9269;50.838;12.094;2023-05-16T02:44:37;16.30;38.80
18287;DHT22;9269;50.838;12.094;2023-05-16T02:47:07;16.30;38.90
18287;DHT22;9269;50.838;12.094;2023-05-16T02:49:37;16.20;39.30
18287;DHT22;9269;50.838;12.094;2023-05-16T02:52:06;16.30;39.20
18287;DHT22;9269;50.838;12.094;2023-05-16T02:54:37;16.30;39.10
18287;DHT22;9269;50.838;12.094;2023-05-16T02:57:05;16.30;39.50
18287;DHT22;9269;50.838;12.094;2023-05-16T02:59:33;16.30;39.20
18287;DHT22;9269;50.838;12.094;2023-05-16T03:02:03;16.20;39.40
18287;DHT22;9269;50.838;12.094;2023-05-16T03:04:35;16.30;39.40
18287;DHT22;9269;50.838;12.094;2023-05-16T03:07:04;16.20;39.50
18287;DHT22;9269;50.838;12.094;2023-05-16T03:09:33;16.30;39.30
18287;DHT22;9269;50.838;12.094;2023-05-16T03:12:02;16.20;39.80
18287;DHT22;9269;50.838;12.094;2023-05-16T03:14:33;16.30;40.10
18287;DHT22;9269;50.838;12.094;2023-05-16T03:17:02;16.20;40.70
18287;DHT22;9269;50.838;12.094;2023-05-16T03:19:31;16.20;41.00
18287;DHT22;9269;50.838;12.094;2023-05-16T03:22:01;16.20;41.00
18287;DHT22;9269;50.838;12.094;2023-05-16T03:24:30;16.20;41.20
18287;DHT22;9269;50.838;12.094;2023-05-16T03:26:59;16.20;41.30
18287;DHT22;9269;50.838;12.094;2023-05-16T03:29:28;16.20;41.90
18287;DHT22;9269;50.838;12.094;2023-05-16T03:31:56;16.10;41.10
18287;DHT22;9269;50.838;12.094;2023-05-16T03:34:25;16.10;41.10
18287;DHT22;9269;50.838;12.094;2023-05-16T03:36:54;16.10;41.50
18287;DHT22;9269;50.838;12.094;2023-05-16T03:39:24;16.00;41.50
18287;DHT22;9269;50.838;12.094;2023-05-16T03:41:52;16.10;41.20
18287;DHT22;9269;50.838;12.094;2023-05-16T03:44:22;16.00;41.10
18287;DHT22;9269;50.838;12.094;2023-05-16T03:46:51;16.00;40.90
18287;DHT22;9269;50.838;12.094;2023-05-16T03:49:25;16.00;41.10
18287;DHT22;9269;50.838;12.094;2023-05-16T03:51:54;16.00;41.00
18287;DHT22;9269;50.838;12.094;2023-05-16T03:54:24;16.00;41.00
18287;DHT22;9269;50.838;12.094;2023-05-16T03:56:53;16.00;40.90
18287;DHT22;9269;50.838;12.094;2023-05-16T03:59:21;16.00;41.30
18287;DHT22;9269;50.838;12.094;2023-05-16T04:01:50;16.00;41.30
18287;DHT22;9269;50.838;12.094;2023-05-16T04:04:19;16.00;41.20
18287;DHT22;9269;50.838;12.094;2023-05-16T04:06:47;16.00;41.80
18287;DHT22;9269;50.838;12.094;2023-05-16T04:09:15;16.00;41.70
18287;DHT22;9269;50.838;12.094;2023-05-16T04:11:46;16.00;42.00
18287;DHT22;9269;50.838;12.094;2023-05-16T04:14:14;16.00;41.80
18287;DHT22;9269;50.838;12.094;2023-05-16T04:16:43;16.10;41.30
18287;DHT22;9269;50.838;12.094;2023-05-16T04:19:12;16.20;41.40
18287;DHT22;9269;50.838;12.094;2023-05-16T04:21:41;16.20;41.40
18287;DHT22;9269;50.838;12.094;2023-05-16T04:24:09;16.10;40.90
18287;DHT22;9269;50.838;12.094;2023-05-16T04:26:38;16.20;41.20
18287;DHT22;9269;50.838;12.094;2023-05-16T04:29:09;16.20;40.90
18287;DHT22;9269;50.838;12.094;2023-05-16T04:31:38;16.20;40.60
18287;DHT22;9269;50.838;12.094;2023-05-16T04:34:07;16.20;40.70
18287;DHT22;9269;50.838;12.094;2023-05-16T04:36:36;16.30;40.70
18287;DHT22;9269;50.838;12.094;2023-05-16T04:39:04;16.40;40.50
18287;DHT22;9269;50.838;12.094;2023-05-16T04:41:33;16.30;40.50
18287;DHT22;9269;50.838;12.094;2023-05-16T04:44:02;16.50;40.60
18287;DHT22;9269;50.838;12.094;2023-05-16T04:46:32;16.50;40.50
18287;DHT22;9269;50.838;12.094;2023-05-16T04:49:01;16.40;40.40
18287;DHT22;9269;50.838;12.094;2023-05-16T04:51:30;16.50;40.60
18287;DHT22;9269;50.838;12.094;2023-05-16T04:54:00;16.50;40.80
18287;DHT22;9269;50.838;12.094;2023-05-16T04:56:28;16.50;40.50
18287;DHT22;9269;50.838;12.094;2023-05-16T04:58:57;16.60;40.60
18287;DHT22;9269;50.838;12.094;2023-05-16T05:01:25;16.60;40.40
18287;DHT22;9269;50.838;12.094;2023-05-16T05:03:55;16.70;40.30
18287;DHT22;9269;50.838;12.094;2023-05-16T05:06:24;16.70;40.40
18287;DHT22;9269;50.838;12.094;2023-05-16T05:08:54;16.60;40.50
18287;DHT22;9269;50.838;12.094;2023-05-16T05:11:25;16.70;40.60
18287;DHT22;9269;50.838;12.094;2023-05-16T05:13:54;16.70;40.40
18287;DHT22;9269;50.838;12.094;2023-05-16T05:16:23;16.70;41.00
18287;DHT22;9269;50.838;12.094;2023-05-16T05:18:52;16.70;40.50
18287;DHT22;9269;50.838;12.094;2023-05-16T05:21:22;16.90;40.50
18287;DHT22;9269;50.838;12.094;2023-05-16T05:23:51;16.70;40.90
18287;DHT22;9269;50.838;12.094;2023-05-16T05:26:20;16.80;40.40
18287;DHT22;9269;50.838;12.094;2023-05-16T05:28:48;16.70;40.70
18287;DHT22;9269;50.838;12.094;2023-05-16T05:31:31;16.70;40.10
18287;DHT22;9269;50.838;12.094;2023-05-16T05:34:01;16.80;40.50
18287;DHT22;9269;50.838;12.094;2023-05-16T05:36:32;16.80;40.60
18287;DHT22;9269;50.838;12.094;2023-05-16T05:39:00;16.80;40.60
18287;DHT22;9269;50.838;12.094;2023-05-16T05:41:29;16.70;41.10
18287;DHT22;9269;50.838;12.094;2023-05-16T05:43:58;16.70;41.20
18287;DHT22;9269;50.838;12.094;2023-05-16T05:46:36;16.70;41.00
18287;DHT22;9269;50.838;12.094;2023-05-16T05:49:08;16.80;40.70
18287;DHT22;9269;50.838;12.094;2023-05-16T05:51:38;16.70;40.80
18287;DHT22;9269;50.838;12.094;2023-05-16T05:54:07;16.80;41.20
18287;DHT22;9269;50.838;12.094;2023-05-16T05:56:36;16.70;40.40
18287;DHT22;9269;50.838;12.094;2023-05-16T05:59:05;16.70;40.80
18287;DHT22;9269;50.838;12.094;2023-05-16T06:01:33;16.70;40.50
18287;DHT22;9269;50.838;12.094;2023-05-16T06:04:02;16.70;40.60
18287;DHT22;9269;50.838;12.094;2023-05-16T06:06:31;16.70;40.50
18287;DHT22;9269;50.838;12.094;2023-05-16T06:09:01;16.80;40.40
18287;DHT22;9269;50.838;12.094;2023-05-16T06:11:30;16.80;40.60
18287;DHT22;9269;50.838;12.094;2023-05-16T06:13:58;16.80;40.60
18287;DHT22;9269;50.838;12.094;2023-05-16T06:16:27;16.90;40.90
18287;DHT22;9269;50.838;12.094;2023-05-16T06:18:56;16.80;41.10
18287;DHT22;9269;50.838;12.094;2023-05-16T06:21:25;16.80;41.10
18287;DHT22;9269;50.838;12.094;2023-05-16T06:23:53;16.80;40.80
18287;DHT22;9269;50.838;12.094;2023-05-16T06:26:24;16.80;41.10
18287;DHT22;9269;50.838;12.094;2023-05-16T06:28:53;16.80;41.30
18287;DHT22;9269;50.838;12.094;2023-05-16T06:31:22;16.80;41.10
18287;DHT22;9269;50.838;12.094;2023-05-16T06:33:50;16.80;41.10
18287;DHT22;9269;50.838;12.094;2023-05-16T06:36:18;16.70;41.20
18287;DHT22;9269;50.838;12.094;2023-05-16T06:38:48;16.70;41.10
18287;DHT22;9269;50.838;12.094;2023-05-16T06:41:17;16.70;40.90
18287;DHT22;9269;50.838;12.094;2023-05-16T06:43:47;16.70;41.30
18287;DHT22;9269;50.838;12.094;2023-05-16T06:46:16;16.70;40.90
18287;DHT22;9269;50.838;12.094;2023-05-16T06:48:45;16.70;40.70
18287;DHT22;9269;50.838;12.094;2023-05-16T06:51:13;16.70;41.10
18287;DHT22;9269;50.838;12.094;2023-05-16T06:53:42;16.70;40.90
18287;DHT22;9269;50.838;12.094;2023-05-16T06:56:10;16.70;41.20
18287;DHT22;9269;50.838;12.094;2023-05-16T06:58:39;16.70;40.70
18287;DHT22;9269;50.838;12.094;2023-05-16T07:01:10;16.70;40.70
18287;DHT22;9269;50.838;12.094;2023-05-16T07:03:39;16.70;41.10
18287;DHT22;9269;50.838;12.094;2023-05-16T07:06:08;16.70;41.20
18287;DHT22;9269;50.838;12.094;2023-05-16T07:08:36;16.70;40.80
18287;DHT22;9269;50.838;12.094;2023-05-16T07:11:05;16.60;40.60
18287;DHT22;9269;50.838;12.094;2023-05-16T07:13:34;16.70;40.90
18287;DHT22;9269;50.838;12.094;2023-05-16T07:16:04;16.70;41.00
18287;DHT22;9269;50.838;12.094;2023-05-16T07:18:35;16.60;40.70
18287;DHT22;9269;50.838;12.094;2023-05-16T07:21:04;16.70;40.30
18287;DHT22;9269;50.838;12.094;2023-05-16T07:23:33;16.70;40.40
18287;DHT22;9269;50.838;12.094;2023-05-16T07:26:02;16.60;40.50
18287;DHT22;9269;50.838;12.094;2023-05-16T07:28:30;16.60;40.70
18287;DHT22;9269;50.838;12.094;2023-05-16T07:30:59;16.60;40.20
18287;DHT22;9269;50.838;12.094;2023-05-16T07:33:27;16.50;39.90
18287;DHT22;9269;50.838;12.094;2023-05-16T07:35:57;16.60;40.10
18287;DHT22;9269;50.838;12.094;2023-05-16T07:38:42;16.60;39.70
18287;DHT22;9269;50.838;12.094;2023-05-16T07:41:10;16.50;39.70
18287;DHT22;9269;50.838;12.094;2023-05-16T07:43:38;16.60;39.70
18287;DHT22;9269;50.838;12.094;2023-05-16T07:46:07;16.50;39.50
18287;DHT22;9269;50.838;12.094;2023-05-16T07:48:35;16.50;39.50
18287;DHT22;9269;50.838;12.094;2023-05-16T07:51:05;16.50;39.30
18287;DHT22;9269;50.838;12.094;2023-05-16T07:53:34;16.40;39.50
18287;DHT22;9269;50.838;12.094;2023-05-16T07:56:02;16.50;39.30
18287;DHT22;9269;50.838;12.094;2023-05-16T07:58:31;16.60;39.20
18287;DHT22;9269;50.838;12.094;2023-05-16T08:01:00;16.50;39.20
18287;DHT22;9269;50.838;12.094;2023-05-16T08:03:29;16.60;39.00
18287;DHT22;9269;50.838;12.094;2023-05-16T08:05:57;16.60;39.10
18287;DHT22;9269;50.838;12.094;2023-05-16T08:08:27;16.60;39.20
18287;DHT22;9269;50.838;12.094;2023-05-16T08:10:56;16.50;38.90
18287;DHT22;9269;50.838;12.094;2023-05-16T08:13:25;16.50;38.80
18287;DHT22;9269;50.838;12.094;2023-05-16T08:15:54;16.50;38.20
18287;DHT22;9269;50.838;12.094;2023-05-16T08:18:23;16.60;38.40
18287;DHT22;9269;50.838;12.094;2023-05-16T08:20:51;16.80;38.20
18287;DHT22;9269;50.838;12.094;2023-05-16T08:23:20;16.90;38.20
18287;DHT22;9269;50.838;12.094;2023-05-16T08:25:49;17.10;38.00
18287;DHT22;9269;50.838;12.094;2023-05-16T08:28:18;17.20;37.90
18287;DHT22;9269;50.838;12.094;2023-05-16T08:30:46;17.30;37.50
18287;DHT22;9269;50.838;12.094;2023-05-16T08:33:15;17.50;37.20
18287;DHT22;9269;50.838;12.094;2023-05-16T08:35:43;17.70;37.20
18287;DHT22;9269;50.838;12.094;2023-05-16T08:38:12;17.80;36.70
18287;DHT22;9269;50.838;12.094;2023-05-16T08:40:42;17.80;36.80
18287;DHT22;9269;50.838;12.094;2023-05-16T08:43:11;17.70;37.00
18287;DHT22;9269;50.838;12.094;2023-05-16T08:45:40;17.60;36.70
18287;DHT22;9269;50.838;12.094;2023-05-16T08:48:09;17.70;36.80
18287;DHT22;9269;50.838;12.094;2023-05-16T08:50:38;17.60;36.80
18287;DHT22;9269;50.838;12.094;2023-05-16T08:53:11;17.60;36.50
18287;DHT22;9269;50.838;12.094;2023-05-16T08:55:43;17.80;36.90
18287;DHT22;9269;50.838;12.094;2023-05-16T08:58:14;17.70;36.90
18287;DHT22;9269;50.838;12.094;2023-05-16T09:00:43;17.60;36.50
18287;DHT22;9269;50.838;12.094;2023-05-16T09:03:12;17.60;36.70
18287;DHT22;9269;50.838;12.094;2023-05-16T09:05:42;17.60;36.70
18287;DHT22;9269;50.838;12.094;2023-05-16T09:08:10;17.50;36.60
18287;DHT22;9269;50.838;12.094;2023-05-16T09:10:39;17.60;36.40
18287;DHT22;9269;50.838;12.094;2023-05-16T09:13:08;17.70;37.00
18287;DHT22;9269;50.838;12.094;2023-05-16T09:15:37;17.80;36.50
18287;DHT22;9269;50.838;12.094;2023-05-16T09:18:11;17.70;36.50
18287;DHT22;9269;50.838;12.094;2023-05-16T09:20:43;17.80;36.70
18287;DHT22;9269;50.838;12.094;2023-05-16T09:23:14;17.80;36.10
18287;DHT22;9269;50.838;12.094;2023-05-16T09:25:43;18.00;36.40
18287;DHT22;9269;50.838;12.094;2023-05-16T09:28:11;18.00;36.50
18287;DHT22;9269;50.838;12.094;2023-05-16T09:30:45;18.00;36.40
18287;DHT22;9269;50.838;12.094;2023-05-16T09:33:15;18.00;36.50
18287;DHT22;9269;50.838;12.094;2023-05-16T09:35:44;18.10;36.00
18287;DHT22;9269;50.838;12.094;2023-05-16T09:38:13;18.10;35.90
18287;DHT22;9269;50.838;12.094;2023-05-16T09:40:43;18.20;34.40
18287;DHT22;9269;50.838;12.094;2023-05-16T09:43:15;18.20;34.80
18287;DHT22;9269;50.838;12.094;2023-05-16T09:45:47;18.10;36.10
18287;DHT22;9269;50.838;12.094;2023-05-16T09:48:16;18.10;36.20
18287;DHT22;9269;50.838;12.094;2023-05-16T09:50:49;18.20;34.80
18287;DHT22;9269;50.838;12.094;2023-05-16T09:53:24;18.20;34.70
18287;DHT22;9269;50.838;12.094;2023-05-16T09:56:02;18.30;34.30
18287;DHT22;9269;50.838;12.094;2023-05-16T09:58:32;18.30;34.60
18287;DHT22;9269;50.838;12.094;2023-05-16T10:01:03;18.20;34.60
18287;DHT22;9269;50.838;12.094;2023-05-16T10:03:34;18.10;35.30
18287;DHT22;9269;50.838;12.094;2023-05-16T10:06:03;18.10;35.80
18287;DHT22;9269;50.838;12.094;2023-05-16T10:08:34;18.00;35.90
18287;DHT22;9269;50.838;12.094;2023-05-16T10:11:04;17.90;35.90
18287;DHT22;9269;50.838;12.094;2023-05-16T10:13:35;17.90;35.90
18287;DHT22;9269;50.838;12.094;2023-05-16T10:16:09;17.70;36.20
18287;DHT22;9269;50.838;12.094;2023-05-16T10:18:39;17.80;36.30
18287;DHT22;9269;50.838;12.094;2023-05-16T10:21:14;17.70;36.40
18287;DHT22;9269;50.838;12.094;2023-05-16T10:23:47;17.80;36.40
18287;DHT22;9269;50.838;12.094;2023-05-16T10:26:16;17.70;36.60
18287;DHT22;9269;50.838;12.094;2023-05-16T10:28:45;17.70;36.40
18287;DHT22;9269;50.838;12.094;2023-05-16T10:31:15;17.70;36.40
18287;DHT22;9269;50.838;12.094;2023-05-16T10:33:45;17.60;36.70
18287;DHT22;9269;50.838;12.094;2023-05-16T10:36:15;17.50;37.00
18287;DHT22;9269;50.838;12.094;2023-05-16T10:38:45;17.50;36.90
18287;DHT22;9269;50.838;12.094;2023-05-16T10:41:15;17.50;37.00
18287;DHT22;9269;50.838;12.094;2023-05-16T10:43:46;17.50;37.20
18287;DHT22;9269;50.838;12.094;2023-05-16T10:46:26;17.50;37.10
18287;DHT22;9269;50.838;12.094;2023-05-16T10:48:55;17.40;36.70
18287;DHT22;9269;50.838;12.094;2023-05-16T10:51:42;17.50;37.30
18287;DHT22;9269;50.838;12.094;2023-05-16T10:54:11;17.50;37.10
18287;DHT22;9269;50.838;12.094;2023-05-16T10:56:41;17.50;36.80
18287;DHT22;9269;50.838;12.094;2023-05-16T10:59:22;17.40;37.20
18287;DHT22;9269;50.838;12.094;2023-05-16T11:01:54;17.40;36.90
18287;DHT22;9269;50.838;12.094;2023-05-16T11:04:45;17.50;36.80
18287;DHT22;9269;50.838;12.094;2023-05-16T11:07:17;17.50;36.70
18287;DHT22;9269;50.838;12.094;2023-05-16T11:10:00;17.40;36.80
18287;DHT22;9269;50.838;12.094;2023-05-16T11:12:41;17.40;37.10
18287;DHT22;9269;50.838;12.094;2023-05-16T11:15:17;17.50;36.80
18287;DHT22;9269;50.838;12.094;2023-05-16T11:17:46;17.40;36.80
18287;DHT22;9269;50.838;12.094;2023-05-16T11:20:35;17.40;37.00
18287;DHT22;9269;50.838;12.094;2023-05-16T11:23:23;17.50;37.00
18287;DHT22;9269;50.838;12.094;2023-05-16T11:25:54;17.50;36.90
18287;DHT22;9269;50.838;12.094;2023-05-16T11:28:24;17.60;36.90
18287;DHT22;9269;50.838;12.094;2023-05-16T11:30:54;17.60;36.90
18287;DHT22;9269;50.838;12.094;2023-05-16T11:33:24;17.80;36.70
18287;DHT22;9269;50.838;12.094;2023-05-16T11:36:02;17.70;36.70
18287;DHT22;9269;50.838;12.094;2023-05-16T11:38:42;17.70;36.50
18287;DHT22;9269;50.838;12.094;2023-05-16T11:41:11;17.70;36.60
18287;DHT22;9269;50.838;12.094;2023-05-16T11:43:43;17.70;36.70
18287;DHT22;9269;50.838;12.094;2023-05-16T11:46:12;17.70;36.90
18287;DHT22;9269;50.838;12.094;2023-05-16T11:48:41;17.70;36.60
18287;DHT22;9269;50.838;12.094;2023-05-16T11:51:17;17.60;36.50
18287;DHT22;9269;50.838;12.094;2023-05-16T11:53:47;17.60;36.80
18287;DHT22;9269;50.838;12.094;2023-05-16T11:56:17;17.60;36.90
18287;DHT22;9269;50.838;12.094;2023-05-16T11:58:46;17.50;36.40
18287;DHT22;9269;50.838;12.094;2023-05-16T12:01:19;17.40;36.50
18287;DHT22;9269;50.838;12.094;2023-05-16T12:03:54;17.30;36.70
18287;DHT22;9269;50.838;12.094;2023-05-16T12:06:24;17.30;36.70
18287;DHT22;9269;50.838;12.094;2023-05-16T12:08:53;17.30;36.60
18287;DHT22;9269;50.838;12.094;2023-05-16T12:11:22;17.30;36.50
18287;DHT22;9269;50.838;12.094;2023-05-16T12:13:51;17.30;36.80
18287;DHT22;9269;50.838;12.094;2023-05-16T12:16:20;17.30;37.10
18287;DHT22;9269;50.838;12.094;2023-05-16T12:18:48;17.40;36.90
18287;DHT22;9269;50.838;12.094;2023-05-16T12:21:17;17.30;37.00
18287;DHT22;9269;50.838;12.094;2023-05-16T12:23:47;17.30;36.90
18287;DHT22;9269;50.838;12.094;2023-05-16T12:26:24;17.30;36.90
18287;DHT22;9269;50.838;12.094;2023-05-16T12:28:53;17.40;37.10
18287;DHT22;9269;50.838;12.094;2023-05-16T12:31:24;17.30;36.90
18287;DHT22;9269;50.838;12.094;2023-05-16T12:33:58;17.30;37.10
18287;DHT22;9269;50.838;12.094;2023-05-16T12:36:31;17.30;37.20
18287;DHT22;9269;50.838;12.094;2023-05-16T12:39:02;17.30;37.20
18287;DHT22;9269;50.838;12.094;2023-05-16T12:41:31;17.30;37.10
18287;DHT22;9269;50.838;12.094;2023-05-16T12:44:08;17.40;36.90
18287;DHT22;9269;50.838;12.094;2023-05-16T12:46:42;17.30;37.60
18287;DHT22;9269;50.838;12.094;2023-05-16T12:49:11;17.40;37.30
18287;DHT22;9269;50.838;12.094;2023-05-16T12:51:47;17.50;37.40
18287;DHT22;9269;50.838;12.094;2023-05-16T12:54:18;17.60;37.50
18287;DHT22;9269;50.838;12.094;2023-05-16T12:56:47;17.70;37.50
18287;DHT22;9269;50.838;12.094;2023-05-16T12:59:15;17.60;37.10
18287;DHT22;9269;50.838;12.094;2023-05-16T13:01:48;17.90;37.00
18287;DHT22;9269;50.838;12.094;2023-05-16T13:04:18;17.80;37.00
18287;DHT22;9269;50.838;12.094;2023-05-16T13:06:47;17.90;37.00
18287;DHT22;9269;50.838;12.094;2023-05-16T13:09:27;17.90;37.10
18287;DHT22;9269;50.838;12.094;2023-05-16T13:11:59;17.90;36.90
18287;DHT22;9269;50.838;12.094;2023-05-16T13:14:28;17.90;36.90
18287;DHT22;9269;50.838;12.094;2023-05-16T13:16:56;17.80;36.90
18287;DHT22;9269;50.838;12.094;2023-05-16T13:19:24;17.70;36.90
18287;DHT22;9269;50.838;12.094;2023-05-16T13:21:53;17.80;36.90
18287;DHT22;9269;50.838;12.094;2023-05-16T13:24:23;17.80;36.90
18287;DHT22;9269;50.838;12.094;2023-05-16T13:26:52;17.70;36.80
18287;DHT22;9269;50.838;12.094;2023-05-16T13:29:21;17.60;37.30
18287;DHT22;9269;50.838;12.094;2023-05-16T13:31:49;17.60;36.80
18287;DHT22;9269;50.838;12.094;2023-05-16T13:34:18;17.50;37.00
18287;DHT22;9269;50.838;12.094;2023-05-16T13:36:47;17.50;37.40
18287;DHT22;9269;50.838;12.094;2023-05-16T13:39:21;17.40;37.20
18287;DHT22;9269;50.838;12.094;2023-05-16T13:41:50;17.30;37.30
18287;DHT22;9269;50.838;12.094;2023-05-16T13:44:21;17.30;37.10
18287;DHT22;9269;50.838;12.094;2023-05-16T13:46:52;17.30;37.00
18287;DHT22;9269;50.838;12.094;2023-05-16T13:49:21;17.40;37.00
18287;DHT22;9269;50.838;12.094;2023-05-16T13:51:49;17.30;36.90
18287;DHT22;9269;50.838;12.094;2023-05-16T13:54:19;17.60;36.70
18287;DHT22;9269;50.838;12.094;2023-05-16T13:56:49;17.50;36.70
18287;DHT22;9269;50.838;12.094;2023-05-16T13:59:17;17.60;36.50
18287;DHT22;9269;50.838;12.094;2023-05-16T14:02:05;17.80;36.80
18287;DHT22;9269;50.838;12.094;2023-05-16T14:04:34;17.90;36.50
18287;DHT22;9269;50.838;12.094;2023-05-16T14:07:03;17.90;36.50
18287;DHT22;9269;50.838;12.094;2023-05-16T14:09:31;17.90;36.40
18287;DHT22;9269;50.838;12.094;2023-05-16T14:12:01;18.00;35.90
18287;DHT22;9269;50.838;12.094;2023-05-16T14:14:30;18.00;35.90
18287;DHT22;9269;50.838;12.094;2023-05-16T14:16:59;18.00;35.90
18287;DHT22;9269;50.838;12.094;2023-05-16T14:19:29;18.00;36.00
18287;DHT22;9269;50.838;12.094;2023-05-16T14:21:58;18.00;35.80
18287;DHT22;9269;50.838;12.094;2023-05-16T14:24:26;18.10;35.80
18287;DHT22;9269;50.838;12.094;2023-05-16T14:26:55;18.00;35.70
18287;DHT22;9269;50.838;12.094;2023-05-16T14:29:23;18.00;35.50
18287;DHT22;9269;50.838;12.094;2023-05-16T14:31:52;18.00;35.40
18287;DHT22;9269;50.838;12.094;2023-05-16T14:34:21;18.00;35.40
18287;DHT22;9269;50.838;12.094;2023-05-16T14:36:52;18.00;35.60
18287;DHT22;9269;50.838;12.094;2023-05-16T14:39:20;18.00;35.50
18287;DHT22;9269;50.838;12.094;2023-05-16T14:41:50;18.00;35.60
18287;DHT22;9269;50.838;12.094;2023-05-16T14:44:19;18.10;35.20
18287;DHT22;9269;50.838;12.094;2023-05-16T14:46:50;17.90;34.90
18287;DHT22;9269;50.838;12.094;2023-05-16T14:49:19;17.90;35.10
18287;DHT22;9269;50.838;12.094;2023-05-16T14:51:47;17.70;34.90
18287;DHT22;9269;50.838;12.094;2023-05-16T14:54:18;17.80;34.80
18287;DHT22;9269;50.838;12.094;2023-05-16T14:56:47;17.80;34.30
18287;DHT22;9269;50.838;12.094;2023-05-16T14:59:15;17.60;34.50
18287;DHT22;9269;50.838;12.094;2023-05-16T15:01:44;17.70;34.10
18287;DHT22;9269;50.838;12.094;2023-05-16T15:04:13;17.70;34.00
18287;DHT22;9269;50.838;12.094;2023-05-16T15:06:41;17.80;34.10
18287;DHT22;9269;50.838;12.094;2023-05-16T15:09:10;17.70;33.80
18287;DHT22;9269;50.838;12.094;2023-05-16T15:11:40;17.80;33.90
18287;DHT22;9269;50.838;12.094;2023-05-16T15:14:08;17.90;34.10
18287;DHT22;9269;50.838;12.094;2023-05-16T15:16:38;18.00;34.00
18287;DHT22;9269;50.838;12.094;2023-05-16T15:19:07;18.00;34.20
18287;DHT22;9269;50.838;12.094;2023-05-16T15:21:36;18.00;34.00
18287;DHT22;9269;50.838;12.094;2023-05-16T15:24:05;18.00;33.90
18287;DHT22;9269;50.838;12.094;2023-05-16T15:26:34;18.00;34.10
18287;DHT22;9269;50.838;12.094;2023-05-16T15:29:05;18.00;33.70
18287;DHT22;9269;50.838;12.094;2023-05-16T15:31:33;18.00;33.70
18287;DHT22;9269;50.838;12.094;2023-05-16T15:34:03;18.00;34.00
18287;DHT22;9269;50.838;12.094;2023-05-16T15:36:32;17.90;33.70
18287;DHT22;9269;50.838;12.094;2023-05-16T15:39:01;18.00;33.50
18287;DHT22;9269;50.838;12.094;2023-05-16T15:41:30;18.10;33.40
18287;DHT22;9269;50.838;12.094;2023-05-16T15:44:04;18.10;33.90
18287;DHT22;9269;50.838;12.094;2023-05-16T15:46:33;18.10;33.40
18287;DHT22;9269;50.838;12.094;2023-05-16T15:49:01;18.20;32.20